sensor_id;sensor_type;location;lat;lon;timestamp;pressure;altitude;pressure_sealevel;temperature;humidity
49999;BME280;68071;45.062;7.356;2023-05-14T00:02:53;95073.22;;;9.04;100.00
49999;BME280;68071;45.062;7.356;2023-05-14T00:05:57;95066.22;;;8.77;100.00
49999;BME280;68071;45.062;7.356;2023-05-14T00:09:01;95071.72;;;8.74;100.00
49999;BME280;68071;45.062;7.356;2023-05-14T00:12:05;95059.91;;;8.73;100.00
49999;BME280;68071;45.062;7.356;2023-05-14T00:15:09;95063.72;;;9.08;100.00
49999;BME280;68071;45.062;7.356;2023-05-14T00:18:13;95070.84;;;9.06;100.00
49999;BME280;68071;45.062;7.356;2023-05-14T00:21:17;95059.41;;;9.00;100.00
49999;BME280;68071;45.062;7.356;2023-05-14T00:24:21;95061.47;;;8.78;100.00
49999;BME280;68071;45.062;7.356;2023-05-14T00:27:25;95047.22;;;9.01;100.00
49999;BME280;68071;45.062;7.356;2023-05-14T00:30:28;95056.72;;;8.86;100.00
49999;BME280;68071;45.062;7.356;2023-05-14T00:33:32;95055.19;;;8.77;100.00
49999;BME280;68071;45.062;7.356;2023-05-14T00:36:37;95053.97;;;8.86;100.00
49999;BME280;68071;45.062;7.356;2023-05-14T00:39:40;95051.53;;;9.10;100.00
49999;BME280;68071;45.062;7.356;2023-05-14T00:42:44;95053.47;;;9.09;100.00
49999;BME280;68071;45.062;7.356;2023-05-14T00:45:50;95041.94;;;9.36;100.00
49999;BME280;68071;45.062;7.356;2023-05-14T00:48:54;95054.81;;;9.53;100.00
49999;BME280;68071;45.062;7.356;2023-05-14T00:51:59;95052.66;;;9.19;100.00
49999;BME280;68071;45.062;7.356;2023-05-14T00:55:04;95059.53;;;8.71;100.00
49999;BME280;68071;45.062;7.356;2023-05-14T00:58:10;95063.78;;;8.98;100.00
49999;BME280;68071;45.062;7.356;2023-05-14T01:01:14;95056.66;;;9.04;100.00
49999;BME280;68071;45.062;7.356;2023-05-14T01:04:19;95057.34;;;9.26;100.00
49999;BME280;68071;45.062;7.356;2023-05-14T01:11:05;95064.19;;;8.96;100.00
49999;BME280;68071;45.062;7.356;2023-05-14T01:14:20;95055.59;;;8.72;100.00
49999;BME280;68071;45.062;7.356;2023-05-14T01:17:27;95065.78;;;8.86;100.00
49999;BME280;68071;45.062;7.356;2023-05-14T01:20:32;95056.81;;;8.57;100.00
49999;BME280;68071;45.062;7.356;2023-05-14T01:23:36;95047.78;;;8.24;100.00
49999;BME280;68071;45.062;7.356;2023-05-14T01:26:53;95054.09;;;7.95;100.00
49999;BME280;68071;45.062;7.356;2023-05-14T01:30:12;95047.41;;;7.89;100.00
49999;BME280;68071;45.062;7.356;2023-05-14T01:33:53;95037.16;;;8.33;100.00
49999;BME280;68071;45.062;7.356;2023-05-14T01:37:00;95039.47;;;8.45;100.00
49999;BME280;68071;45.062;7.356;2023-05-14T01:40:05;95040.31;;;8.13;100.00
49999;BME280;68071;45.062;7.356;2023-05-14T01:43:09;95038.75;;;7.91;100.00
49999;BME280;68071;45.062;7.356;2023-05-14T01:46:17;95028.94;;;7.82;100.00
49999;BME280;68071;45.062;7.356;2023-05-14T01:49:22;95027.75;;;8.01;100.00
49999;BME280;68071;45.062;7.356;2023-05-14T01:52:26;95032.81;;;8.54;100.00
49999;BME280;68071;45.062;7.356;2023-05-14T01:55:30;95028.38;;;8.82;100.00
49999;BME280;68071;45.062;7.356;2023-05-14T01:58:34;95027.19;;;8.90;100.00
49999;BME280;68071;45.062;7.356;2023-05-14T02:01:38;95014.84;;;9.16;100.00
49999;BME280;68071;45.062;7.356;2023-05-14T02:04:42;95010.97;;;9.06;100.00
49999;BME280;68071;45.062;7.356;2023-05-14T02:07:46;95023.34;;;8.47;100.00
49999;BME280;68071;45.062;7.356;2023-05-14T02:10:50;95010.78;;;8.36;100.00
49999;BME280;68071;45.062;7.356;2023-05-14T02:13:54;95011.19;;;8.34;100.00
49999;BME280;68071;45.062;7.356;2023-05-14T02:16:58;94995.47;;;8.27;100.00
49999;BME280;68071;45.062;7.356;2023-05-14T02:20:02;95005.69;;;8.34;100.00
49999;BME280;68071;45.062;7.356;2023-05-14T02:23:17;94992.31;;;8.29;100.00
49999;BME280;68071;45.062;7.356;2023-05-14T02:26:21;94993.88;;;8.30;100.00
49999;BME280;68071;45.062;7.356;2023-05-14T02:29:27;94990.75;;;8.31;100.00
49999;BME280;68071;45.062;7.356;2023-05-14T02:32:31;94987.56;;;8.37;100.00
49999;BME280;68071;45.062;7.356;2023-05-14T02:35:35;94992.69;;;8.38;100.00
49999;BME280;68071;45.062;7.356;2023-05-14T02:38:38;94978.13;;;8.38;100.00
49999;BME280;68071;45.062;7.356;2023-05-14T02:41:42;94978.91;;;8.42;100.00
49999;BME280;68071;45.062;7.356;2023-05-14T02:44:46;94972.59;;;8.52;100.00
49999;BME280;68071;45.062;7.356;2023-05-14T02:47:50;94970.22;;;8.61;100.00
49999;BME280;68071;45.062;7.356;2023-05-14T02:50:54;94966.72;;;8.54;100.00
49999;BME280;68071;45.062;7.356;2023-05-14T02:53:58;94963.13;;;8.64;100.00
49999;BME280;68071;45.062;7.356;2023-05-14T02:57:02;94972.53;;;8.70;100.00
49999;BME280;68071;45.062;7.356;2023-05-14T03:00:06;94969.06;;;8.59;100.00
49999;BME280;68071;45.062;7.356;2023-05-14T03:03:12;94959.22;;;8.47;100.00
49999;BME280;68071;45.062;7.356;2023-05-14T03:06:15;94960.81;;;8.52;100.00
49999;BME280;68071;45.062;7.356;2023-05-14T03:09:19;94956.06;;;8.59;100.00
49999;BME280;68071;45.062;7.356;2023-05-14T03:12:23;94957.25;;;8.47;100.00
49999;BME280;68071;45.062;7.356;2023-05-14T03:15:27;94952.13;;;8.53;100.00
49999;BME280;68071;45.062;7.356;2023-05-14T03:18:31;94957.25;;;8.51;100.00
49999;BME280;68071;45.062;7.356;2023-05-14T03:21:37;94943.84;;;8.68;100.00
49999;BME280;68071;45.062;7.356;2023-05-14T03:24:41;94940.75;;;8.55;100.00
49999;BME280;68071;45.062;7.356;2023-05-14T03:27:45;94944.97;;;8.77;100.00
49999;BME280;68071;45.062;7.356;2023-05-14T03:30:48;94945.25;;;8.98;100.00
49999;BME280;68071;45.062;7.356;2023-05-14T03:33:52;94933.38;;;9.04;100.00
49999;BME280;68071;45.062;7.356;2023-05-14T03:36:56;94929.22;;;8.71;100.00
49999;BME280;68071;45.062;7.356;2023-05-14T03:40:00;94938.00;;;8.44;100.00
49999;BME280;68071;45.062;7.356;2023-05-14T03:43:04;94934.91;;;8.24;100.00
49999;BME280;68071;45.062;7.356;2023-05-14T03:46:09;94938.47;;;8.21;100.00
49999;BME280;68071;45.062;7.356;2023-05-14T03:49:13;94934.16;;;8.12;100.00
49999;BME280;68071;45.062;7.356;2023-05-14T03:52:17;94939.69;;;8.01;100.00
49999;BME280;68071;45.062;7.356;2023-05-14T03:55:22;94935.34;;;8.04;100.00
49999;BME280;68071;45.062;7.356;2023-05-14T03:58:25;94932.97;;;8.06;100.00
49999;BME280;68071;45.062;7.356;2023-05-14T04:01:30;94930.22;;;8.13;100.00
49999;BME280;68071;45.062;7.356;2023-05-14T04:04:34;94930.63;;;8.08;100.00
49999;BME280;68071;45.062;7.356;2023-05-14T04:07:39;94930.63;;;8.08;100.00
49999;BME280;68071;45.062;7.356;2023-05-14T04:10:43;94924.75;;;8.02;100.00
49999;BME280;68071;45.062;7.356;2023-05-14T04:13:47;94923.16;;;8.05;100.00
49999;BME280;68071;45.062;7.356;2023-05-14T04:16:52;94923.53;;;8.07;100.00
49999;BME280;68071;45.062;7.356;2023-05-14T04:19:56;94916.88;;;8.12;100.00
49999;BME280;68071;45.062;7.356;2023-05-14T04:23:00;94920.03;;;8.07;100.00
49999;BME280;68071;45.062;7.356;2023-05-14T04:26:04;94914.91;;;8.05;100.00
49999;BME280;68071;45.062;7.356;2023-05-14T04:29:09;94912.53;;;8.14;100.00
49999;BME280;68071;45.062;7.356;2023-05-14T04:32:12;94917.69;;;7.98;100.00
49999;BME280;68071;45.062;7.356;2023-05-14T04:35:17;94925.56;;;7.88;100.00
49999;BME280;68071;45.062;7.356;2023-05-14T04:38:22;94914.50;;;8.07;100.00
49999;BME280;68071;45.062;7.356;2023-05-14T04:41:26;94917.28;;;7.99;100.00
49999;BME280;68071;45.062;7.356;2023-05-14T04:44:30;94918.44;;;8.06;100.00
49999;BME280;68071;45.062;7.356;2023-05-14T04:47:34;94919.59;;;8.08;100.00
49999;BME280;68071;45.062;7.356;2023-05-14T04:50:38;94914.06;;;8.19;100.00
49999;BME280;68071;45.062;7.356;2023-05-14T04:53:42;94911.31;;;8.19;100.00
49999;BME280;68071;45.062;7.356;2023-05-14T04:56:46;94908.59;;;8.15;100.00
49999;BME280;68071;45.062;7.356;2023-05-14T04:59:50;94910.09;;;8.35;100.00
49999;BME280;68071;45.062;7.356;2023-05-14T05:02:54;94910.91;;;8.31;100.00
49999;BME280;68071;45.062;7.356;2023-05-14T05:05:58;94916.72;;;8.44;100.00
49999;BME280;68071;45.062;7.356;2023-05-14T05:09:02;94924.63;;;8.46;100.00
49999;BME280;68071;45.062;7.356;2023-05-14T05:12:07;94917.91;;;8.43;100.00
49999;BME280;68071;45.062;7.356;2023-05-14T05:15:11;94918.69;;;8.47;100.00
49999;BME280;68071;45.062;7.356;2023-05-14T05:18:15;94923.81;;;8.60;100.00
49999;BME280;68071;45.062;7.356;2023-05-14T05:21:19;94924.00;;;8.98;100.00
49999;BME280;68071;45.062;7.356;2023-05-14T05:24:23;94927.84;;;9.08;100.00
49999;BME280;68071;45.062;7.356;2023-05-14T05:27:27;94920.47;;;8.94;100.00
49999;BME280;68071;45.062;7.356;2023-05-14T05:30:30;94927.56;;;8.91;100.00
49999;BME280;68071;45.062;7.356;2023-05-14T05:33:34;94931.63;;;9.32;100.00
49999;BME280;68071;45.062;7.356;2023-05-14T05:36:39;94933.69;;;9.74;100.00
49999;BME280;68071;45.062;7.356;2023-05-14T05:39:43;94940.16;;;9.98;100.00
49999;BME280;68071;45.062;7.356;2023-05-14T05:42:47;94935.56;;;10.22;100.00
49999;BME280;68071;45.062;7.356;2023-05-14T05:45:50;94938.75;;;10.17;100.00
49999;BME280;68071;45.062;7.356;2023-05-14T05:48:54;94939.91;;;10.23;100.00
49999;BME280;68071;45.062;7.356;2023-05-14T05:51:58;94944.09;;;10.39;100.00
49999;BME280;68071;45.062;7.356;2023-05-14T05:55:02;94946.16;;;10.27;100.00
49999;BME280;68071;45.062;7.356;2023-05-14T05:58:06;94940.75;;;9.75;100.00
49999;BME280;68071;45.062;7.356;2023-05-14T06:01:10;94941.50;;;9.79;100.00
49999;BME280;68071;45.062;7.356;2023-05-14T06:04:14;94943.66;;;9.57;100.00
49999;BME280;68071;45.062;7.356;2023-05-14T06:07:18;94939.28;;;9.63;100.00
49999;BME280;68071;45.062;7.356;2023-05-14T06:10:22;94948.91;;;9.89;100.00
49999;BME280;68071;45.062;7.356;2023-05-14T06:13:26;94945.34;;;10.31;100.00
49999;BME280;68071;45.062;7.356;2023-05-14T06:16:29;94947.25;;;10.72;100.00
49999;BME280;68071;45.062;7.356;2023-05-14T06:19:33;94949.69;;;10.97;100.00
49999;BME280;68071;45.062;7.356;2023-05-14T06:22:37;94947.19;;;10.44;100.00
49999;BME280;68071;45.062;7.356;2023-05-14T06:25:41;94943.47;;;10.58;100.00
49999;BME280;68071;45.062;7.356;2023-05-14T06:28:45;94942.91;;;10.36;100.00
49999;BME280;68071;45.062;7.356;2023-05-14T06:31:49;94933.63;;;10.19;100.00
49999;BME280;68071;45.062;7.356;2023-05-14T06:34:53;94943.16;;;10.84;100.00
49999;BME280;68071;45.062;7.356;2023-05-14T06:37:57;94939.44;;;11.25;100.00
49999;BME280;68071;45.062;7.356;2023-05-14T06:41:01;94937.78;;;11.31;99.71
49999;BME280;68071;45.062;7.356;2023-05-14T06:44:05;94943.19;;;11.39;100.00
49999;BME280;68071;45.062;7.356;2023-05-14T06:47:09;94938.66;;;11.25;100.00
49999;BME280;68071;45.062;7.356;2023-05-14T06:50:13;94946.44;;;11.33;99.97
49999;BME280;68071;45.062;7.356;2023-05-14T06:53:17;94940.09;;;11.05;100.00
49999;BME280;68071;45.062;7.356;2023-05-14T06:56:21;94940.94;;;10.71;100.00
49999;BME280;68071;45.062;7.356;2023-05-14T06:59:25;94941.09;;;11.19;100.00
49999;BME280;68071;45.062;7.356;2023-05-14T07:02:29;94941.22;;;11.39;100.00
49999;BME280;68071;45.062;7.356;2023-05-14T07:05:33;94939.91;;;11.71;98.83
49999;BME280;68071;45.062;7.356;2023-05-14T07:08:37;94951.91;;;11.88;100.00
49999;BME280;68071;45.062;7.356;2023-05-14T07:11:41;94942.75;;;11.91;97.04
49999;BME280;68071;45.062;7.356;2023-05-14T07:14:45;94946.97;;;12.00;98.51
49999;BME280;68071;45.062;7.356;2023-05-14T07:17:49;94939.38;;;11.80;91.50
49999;BME280;68071;45.062;7.356;2023-05-14T07:20:53;94943.25;;;12.10;93.56
49999;BME280;68071;45.062;7.356;2023-05-14T07:23:56;94926.38;;;12.45;91.95
49999;BME280;68071;45.062;7.356;2023-05-14T07:27:00;94931.19;;;12.40;91.94
49999;BME280;68071;45.062;7.356;2023-05-14T07:30:06;94931.34;;;12.33;92.16
49999;BME280;68071;45.062;7.356;2023-05-14T07:33:10;94927.78;;;12.13;95.17
49999;BME280;68071;45.062;7.356;2023-05-14T07:36:14;94918.69;;;12.32;94.49
49999;BME280;68071;45.062;7.356;2023-05-14T07:39:18;94924.81;;;12.44;91.52
49999;BME280;68071;45.062;7.356;2023-05-14T07:42:23;94925.28;;;12.18;93.34
49999;BME280;68071;45.062;7.356;2023-05-14T07:45:27;94929.63;;;12.39;89.63
49999;BME280;68071;45.062;7.356;2023-05-14T07:48:30;94926.44;;;12.61;88.07
49999;BME280;68071;45.062;7.356;2023-05-14T07:51:35;94916.63;;;12.56;88.99
49999;BME280;68071;45.062;7.356;2023-05-14T07:54:38;94920.78;;;12.04;89.12
49999;BME280;68071;45.062;7.356;2023-05-14T07:57:42;94910.50;;;12.25;95.02
49999;BME280;68071;45.062;7.356;2023-05-14T08:00:46;94908.81;;;12.71;90.71
49999;BME280;68071;45.062;7.356;2023-05-14T08:03:50;94911.19;;;12.53;91.35
49999;BME280;68071;45.062;7.356;2023-05-14T08:06:54;94907.38;;;12.63;89.08
49999;BME280;68071;45.062;7.356;2023-05-14T08:09:59;94903.56;;;12.37;90.09
49999;BME280;68071;45.062;7.356;2023-05-14T08:13:02;94901.16;;;12.39;90.43
49999;BME280;68071;45.062;7.356;2023-05-14T08:16:06;94891.19;;;12.21;95.48
49999;BME280;68071;45.062;7.356;2023-05-14T08:19:12;94891.59;;;12.60;92.42
49999;BME280;68071;45.062;7.356;2023-05-14T08:22:16;94890.41;;;12.41;88.99
49999;BME280;68071;45.062;7.356;2023-05-14T08:25:20;94890.63;;;12.70;87.47
49999;BME280;68071;45.062;7.356;2023-05-14T08:28:23;94883.94;;;13.05;89.00
49999;BME280;68071;45.062;7.356;2023-05-14T08:31:28;94880.06;;;13.19;85.14
49999;BME280;68071;45.062;7.356;2023-05-14T08:34:32;94888.00;;;13.00;87.58
49999;BME280;68071;45.062;7.356;2023-05-14T08:37:36;94891.88;;;12.86;90.60
49999;BME280;68071;45.062;7.356;2023-05-14T08:40:40;94877.63;;;13.37;83.93
49999;BME280;68071;45.062;7.356;2023-05-14T08:47:17;94875.72;;;13.34;85.65
49999;BME280;68071;45.062;7.356;2023-05-14T08:50:22;94873.66;;;13.71;87.73
49999;BME280;68071;45.062;7.356;2023-05-14T08:53:26;94868.69;;;13.13;94.26
49999;BME280;68071;45.062;7.356;2023-05-14T08:56:31;94871.41;;;13.50;89.28
49999;BME280;68071;45.062;7.356;2023-05-14T09:08:24;94863.81;;;13.17;94.54
49999;BME280;68071;45.062;7.356;2023-05-14T09:11:28;94860.50;;;12.89;96.55
49999;BME280;68071;45.062;7.356;2023-05-14T09:14:32;94862.81;;;12.74;92.87
49999;BME280;68071;45.062;7.356;2023-05-14T09:17:36;94851.34;;;13.25;90.61
49999;BME280;68071;45.062;7.356;2023-05-14T09:20:40;94847.63;;;13.15;93.69
49999;BME280;68071;45.062;7.356;2023-05-14T09:23:45;94847.09;;;13.21;95.87
49999;BME280;68071;45.062;7.356;2023-05-14T09:26:55;94847.53;;;14.15;87.94
49999;BME280;68071;45.062;7.356;2023-05-14T09:30:18;94851.28;;;14.50;83.41
49999;BME280;68071;45.062;7.356;2023-05-14T09:33:26;94840.09;;;13.49;79.90
49999;BME280;68071;45.062;7.356;2023-05-14T09:36:33;94846.41;;;14.12;79.68
49999;BME280;68071;45.062;7.356;2023-05-14T09:39:37;94834.22;;;14.78;78.05
49999;BME280;68071;45.062;7.356;2023-05-14T09:42:41;94833.78;;;13.95;82.49
49999;BME280;68071;45.062;7.356;2023-05-14T09:45:45;94828.56;;;13.97;86.67
49999;BME280;68071;45.062;7.356;2023-05-14T09:48:49;94833.50;;;14.48;83.00
49999;BME280;68071;45.062;7.356;2023-05-14T09:51:53;94825.19;;;14.18;84.74
49999;BME280;68071;45.062;7.356;2023-05-14T09:54:57;94820.69;;;14.37;85.87
49999;BME280;68071;45.062;7.356;2023-05-14T09:58:01;94825.56;;;15.15;78.82
49999;BME280;68071;45.062;7.356;2023-05-14T10:01:06;94823.22;;;15.26;78.83
49999;BME280;68071;45.062;7.356;2023-05-14T10:04:11;94823.22;;;15.74;77.94
49999;BME280;68071;45.062;7.356;2023-05-14T10:07:21;94815.41;;;14.69;77.70
49999;BME280;68071;45.062;7.356;2023-05-14T10:10:27;94818.31;;;15.17;82.05
49999;BME280;68071;45.062;7.356;2023-05-14T10:13:37;94818.63;;;15.58;80.12
49999;BME280;68071;45.062;7.356;2023-05-14T10:16:47;94812.03;;;15.65;79.92
49999;BME280;68071;45.062;7.356;2023-05-14T10:19:53;94814.16;;;15.96;78.36
49999;BME280;68071;45.062;7.356;2023-05-14T10:22:59;94802.03;;;15.90;79.52
49999;BME280;68071;45.062;7.356;2023-05-14T10:26:04;94803.50;;;16.16;77.04
49999;BME280;68071;45.062;7.356;2023-05-14T10:29:09;94799.13;;;15.58;72.18
49999;BME280;68071;45.062;7.356;2023-05-14T10:32:14;94794.81;;;15.31;77.91
49999;BME280;68071;45.062;7.356;2023-05-14T10:35:19;94790.31;;;15.95;74.27
49999;BME280;68071;45.062;7.356;2023-05-14T10:38:33;94786.75;;;16.16;72.39
49999;BME280;68071;45.062;7.356;2023-05-14T10:41:38;94781.38;;;16.44;73.69
49999;BME280;68071;45.062;7.356;2023-05-14T10:44:48;94776.59;;;16.23;79.42
49999;BME280;68071;45.062;7.356;2023-05-14T10:47:53;94765.50;;;16.10;73.07
49999;BME280;68071;45.062;7.356;2023-05-14T10:50:58;94770.22;;;15.65;79.03
49999;BME280;68071;45.062;7.356;2023-05-14T10:54:03;94771.84;;;16.32;79.57
49999;BME280;68071;45.062;7.356;2023-05-14T10:57:10;94761.31;;;17.00;74.68
49999;BME280;68071;45.062;7.356;2023-05-14T11:00:15;94762.09;;;17.60;69.92
49999;BME280;68071;45.062;7.356;2023-05-14T11:03:20;94749.66;;;16.29;72.85
49999;BME280;68071;45.062;7.356;2023-05-14T11:06:25;94744.25;;;16.98;69.26
49999;BME280;68071;45.062;7.356;2023-05-14T11:09:29;94740.66;;;16.56;77.29
49999;BME280;68071;45.062;7.356;2023-05-14T11:12:39;94726.78;;;16.75;70.13
49999;BME280;68071;45.062;7.356;2023-05-14T11:15:44;94731.00;;;16.89;70.23
49999;BME280;68071;45.062;7.356;2023-05-14T11:19:01;94722.88;;;16.31;79.47
49999;BME280;68071;45.062;7.356;2023-05-14T11:22:06;94715.25;;;16.54;73.05
49999;BME280;68071;45.062;7.356;2023-05-14T11:25:11;94716.91;;;16.42;71.39
49999;BME280;68071;45.062;7.356;2023-05-14T11:28:20;94714.59;;;16.50;73.27
49999;BME280;68071;45.062;7.356;2023-05-14T11:31:24;94706.25;;;16.59;73.31
49999;BME280;68071;45.062;7.356;2023-05-14T11:34:28;94703.47;;;16.59;72.76
49999;BME280;68071;45.062;7.356;2023-05-14T11:37:32;94693.16;;;16.38;71.09
49999;BME280;68071;45.062;7.356;2023-05-14T11:40:36;94694.81;;;16.98;73.46
49999;BME280;68071;45.062;7.356;2023-05-14T11:43:41;94681.78;;;17.14;72.53
49999;BME280;68071;45.062;7.356;2023-05-14T11:46:58;94676.75;;;16.90;73.28
49999;BME280;68071;45.062;7.356;2023-05-14T11:50:04;94678.53;;;17.34;73.36
49999;BME280;68071;45.062;7.356;2023-05-14T11:53:09;94684.31;;;17.67;72.17
49999;BME280;68071;45.062;7.356;2023-05-14T11:56:12;94679.31;;;17.81;77.77
49999;BME280;68071;45.062;7.356;2023-05-14T11:59:17;94677.00;;;17.33;70.68
49999;BME280;68071;45.062;7.356;2023-05-14T12:02:26;94672.06;;;16.37;76.31
49999;BME280;68071;45.062;7.356;2023-05-14T12:05:32;94663.81;;;16.64;78.97
49999;BME280;68071;45.062;7.356;2023-05-14T12:08:36;94657.28;;;16.99;74.85
49999;BME280;68071;45.062;7.356;2023-05-14T12:11:41;94654.50;;;17.64;70.90
49999;BME280;68071;45.062;7.356;2023-05-14T12:14:45;94653.41;;;17.43;69.90
49999;BME280;68071;45.062;7.356;2023-05-14T12:17:50;94655.13;;;17.50;67.30
49999;BME280;68071;45.062;7.356;2023-05-14T12:20:54;94647.94;;;17.02;73.54
49999;BME280;68071;45.062;7.356;2023-05-14T12:23:59;94639.13;;;17.32;74.59
49999;BME280;68071;45.062;7.356;2023-05-14T12:27:04;94636.50;;;17.37;72.10
49999;BME280;68071;45.062;7.356;2023-05-14T12:30:11;94633.81;;;17.71;65.98
49999;BME280;68071;45.062;7.356;2023-05-14T12:33:15;94630.69;;;17.97;65.57
49999;BME280;68071;45.062;7.356;2023-05-14T12:36:19;94615.53;;;17.61;74.88
49999;BME280;68071;45.062;7.356;2023-05-14T12:39:23;94609.75;;;18.35;63.96
49999;BME280;68071;45.062;7.356;2023-05-14T12:42:28;94605.03;;;18.08;68.06
49999;BME280;68071;45.062;7.356;2023-05-14T12:45:33;94599.09;;;17.44;70.77
49999;BME280;68071;45.062;7.356;2023-05-14T12:48:37;94603.38;;;18.01;70.74
49999;BME280;68071;45.062;7.356;2023-05-14T12:51:41;94599.97;;;18.64;62.04
49999;BME280;68071;45.062;7.356;2023-05-14T12:54:46;94588.50;;;18.28;69.56
49999;BME280;68071;45.062;7.356;2023-05-14T12:57:50;94592.66;;;18.67;64.22
49999;BME280;68071;45.062;7.356;2023-05-14T13:00:55;94584.56;;;18.02;66.60
49999;BME280;68071;45.062;7.356;2023-05-14T13:08:08;94577.56;;;18.40;63.39
49999;BME280;68071;45.062;7.356;2023-05-14T13:11:12;94571.31;;;17.41;73.44
49999;BME280;68071;45.062;7.356;2023-05-14T13:14:16;94554.41;;;17.44;69.06
49999;BME280;68071;45.062;7.356;2023-05-14T13:17:20;94561.28;;;18.29;67.89
49999;BME280;68071;45.062;7.356;2023-05-14T13:20:24;94558.16;;;18.85;61.83
49999;BME280;68071;45.062;7.356;2023-05-14T13:23:30;94556.44;;;18.63;65.64
49999;BME280;68071;45.062;7.356;2023-05-14T13:26:38;94554.38;;;18.97;65.23
49999;BME280;68071;45.062;7.356;2023-05-14T13:29:42;94550.78;;;18.72;63.46
49999;BME280;68071;45.062;7.356;2023-05-14T13:33:18;94547.22;;;18.96;61.35
49999;BME280;68071;45.062;7.356;2023-05-14T13:36:22;94537.81;;;17.93;66.74
49999;BME280;68071;45.062;7.356;2023-05-14T13:39:26;94541.28;;;17.69;68.40
49999;BME280;68071;45.062;7.356;2023-05-14T13:42:30;94534.72;;;18.00;64.25
49999;BME280;68071;45.062;7.356;2023-05-14T13:45:34;94538.44;;;17.35;68.15
49999;BME280;68071;45.062;7.356;2023-05-14T13:48:38;94529.59;;;16.81;67.75
49999;BME280;68071;45.062;7.356;2023-05-14T13:51:42;94523.84;;;16.57;72.37
49999;BME280;68071;45.062;7.356;2023-05-14T13:54:47;94518.56;;;16.59;70.07
49999;BME280;68071;45.062;7.356;2023-05-14T13:57:50;94518.69;;;16.37;74.93
49999;BME280;68071;45.062;7.356;2023-05-14T14:00:55;94505.72;;;16.89;69.71
49999;BME280;68071;45.062;7.356;2023-05-14T14:03:59;94510.03;;;16.62;74.36
49999;BME280;68071;45.062;7.356;2023-05-14T14:07:04;94512.69;;;17.31;69.08
49999;BME280;68071;45.062;7.356;2023-05-14T14:10:08;94518.53;;;17.95;67.59
49999;BME280;68071;45.062;7.356;2023-05-14T14:13:13;94509.63;;;18.15;66.77
49999;BME280;68071;45.062;7.356;2023-05-14T14:16:17;94519.41;;;18.44;63.09
49999;BME280;68071;45.062;7.356;2023-05-14T14:19:22;94513.50;;;17.75;64.56
49999;BME280;68071;45.062;7.356;2023-05-14T14:22:26;94515.59;;;17.46;67.48
49999;BME280;68071;45.062;7.356;2023-05-14T14:25:31;94508.97;;;16.78;69.13
49999;BME280;68071;45.062;7.356;2023-05-14T14:28:34;94506.31;;;16.56;71.21
49999;BME280;68071;45.062;7.356;2023-05-14T14:31:38;94502.13;;;16.70;69.67
49999;BME280;68071;45.062;7.356;2023-05-14T14:34:42;94496.09;;;16.81;70.52
49999;BME280;68071;45.062;7.356;2023-05-14T14:37:47;94492.72;;;17.05;68.43
49999;BME280;68071;45.062;7.356;2023-05-14T14:40:53;94495.50;;;17.05;70.20
49999;BME280;68071;45.062;7.356;2023-05-14T14:43:57;94502.75;;;17.30;67.61
49999;BME280;68071;45.062;7.356;2023-05-14T14:47:01;94501.38;;;17.26;70.69
49999;BME280;68071;45.062;7.356;2023-05-14T14:50:06;94495.44;;;17.33;67.45
49999;BME280;68071;45.062;7.356;2023-05-14T14:53:10;94498.91;;;17.09;66.81
49999;BME280;68071;45.062;7.356;2023-05-14T14:56:15;94505.06;;;16.48;72.04
49999;BME280;68071;45.062;7.356;2023-05-14T14:59:19;94499.94;;;16.37;71.44
49999;BME280;68071;45.062;7.356;2023-05-14T15:02:23;94498.78;;;16.07;75.03
49999;BME280;68071;45.062;7.356;2023-05-14T15:05:28;94498.19;;;16.21;72.61
49999;BME280;68071;45.062;7.356;2023-05-14T15:08:32;94509.06;;;16.28;69.67
49999;BME280;68071;45.062;7.356;2023-05-14T15:11:38;94502.69;;;16.28;71.08
49999;BME280;68071;45.062;7.356;2023-05-14T15:18:52;94515.84;;;15.77;76.27
49999;BME280;68071;45.062;7.356;2023-05-14T15:21:57;94499.53;;;15.88;75.35
49999;BME280;68071;45.062;7.356;2023-05-14T15:25:39;94502.19;;;16.01;75.66
49999;BME280;68071;45.062;7.356;2023-05-14T15:28:44;94502.34;;;15.98;74.26
49999;BME280;68071;45.062;7.356;2023-05-14T15:31:48;94488.94;;;15.83;74.78
49999;BME280;68071;45.062;7.356;2023-05-14T15:34:52;94488.56;;;15.31;80.07
49999;BME280;68071;45.062;7.356;2023-05-14T15:37:57;94490.66;;;15.49;78.54
49999;BME280;68071;45.062;7.356;2023-05-14T15:41:01;94482.75;;;14.94;80.35
49999;BME280;68071;45.062;7.356;2023-05-14T15:44:05;94486.97;;;15.21;79.12
49999;BME280;68071;45.062;7.356;2023-05-14T15:47:10;94488.78;;;15.15;76.69
49999;BME280;68071;45.062;7.356;2023-05-14T15:50:14;94481.78;;;14.88;80.67
49999;BME280;68071;45.062;7.356;2023-05-14T15:53:18;94470.13;;;14.80;81.25
49999;BME280;68071;45.062;7.356;2023-05-14T15:56:21;94483.38;;;14.41;83.91
49999;BME280;68071;45.062;7.356;2023-05-14T15:59:25;94482.97;;;14.42;83.34
49999;BME280;68071;45.062;7.356;2023-05-14T16:02:29;94469.66;;;14.24;85.27
49999;BME280;68071;45.062;7.356;2023-05-14T16:05:35;94463.00;;;14.57;84.46
49999;BME280;68071;45.062;7.356;2023-05-14T16:08:39;94465.38;;;14.80;85.83
49999;BME280;68071;45.062;7.356;2023-05-14T16:11:44;94469.81;;;14.78;84.90
49999;BME280;68071;45.062;7.356;2023-05-14T16:14:48;94472.66;;;14.65;87.72
49999;BME280;68071;45.062;7.356;2023-05-14T16:17:53;94472.94;;;15.02;83.57
49999;BME280;68071;45.062;7.356;2023-05-14T16:20:56;94466.28;;;15.31;79.16
49999;BME280;68071;45.062;7.356;2023-05-14T16:24:01;94461.19;;;15.70;77.32
49999;BME280;68071;45.062;7.356;2023-05-14T16:27:06;94468.41;;;15.58;76.79
49999;BME280;68071;45.062;7.356;2023-05-14T16:30:10;94471.34;;;15.55;77.57
49999;BME280;68071;45.062;7.356;2023-05-14T16:33:14;94468.00;;;15.69;76.01
49999;BME280;68071;45.062;7.356;2023-05-14T16:36:19;94472.22;;;15.83;77.98
49999;BME280;68071;45.062;7.356;2023-05-14T16:39:23;94483.81;;;15.82;76.98
49999;BME280;68071;45.062;7.356;2023-05-14T16:42:28;94479.28;;;16.07;74.46
49999;BME280;68071;45.062;7.356;2023-05-14T16:45:32;94483.66;;;15.76;76.34